sensor_id;sensor_type;location;lat;lon;timestamp;pressure;altitude;pressure_sealevel;temperature;humidity
36932;BME280;22847;42.654;23.370;2023-04-29T00:00:37;94675.75;;;9.56;48.49
36932;BME280;22847;42.654;23.370;2023-04-29T00:03:02;94719.75;;;9.59;49.17
36932;BME280;22847;42.654;23.370;2023-04-29T00:05:27;94702.59;;;9.08;49.86
36932;BME280;22847;42.654;23.370;2023-04-29T00:07:53;94543.75;;;8.42;49.63
36932;BME280;22847;42.654;23.370;2023-04-29T00:10:18;94750.84;;;9.70;49.10
36932;BME280;22847;42.654;23.370;2023-04-29T00:12:44;94616.69;;;8.60;49.93
36932;BME280;22847;42.654;23.370;2023-04-29T00:15:09;94716.56;;;9.55;49.00
36932;BME280;22847;42.654;23.370;2023-04-29T00:17:35;94726.50;;;8.92;50.91
36932;BME280;22847;42.654;23.370;2023-04-29T00:20:01;94546.81;;;7.68;51.57
36932;BME280;22847;42.654;23.370;2023-04-29T00:22:26;94721.91;;;9.34;49.86
36932;BME280;22847;42.654;23.370;2023-04-29T00:24:52;94556.38;;;8.76;49.00
36932;BME280;22847;42.654;23.370;2023-04-29T00:27:17;94531.75;;;8.89;48.31
36932;BME280;22847;42.654;23.370;2023-04-29T00:29:43;94564.84;;;9.26;47.84
36932;BME280;22847;42.654;23.370;2023-04-29T00:32:08;94743.22;;;10.44;47.73
36932;BME280;22847;42.654;23.370;2023-04-29T00:34:34;94596.59;;;9.49;47.61
36932;BME280;22847;42.654;23.370;2023-04-29T00:36:59;94738.50;;;10.57;47.43
36932;BME280;22847;42.654;23.370;2023-04-29T00:39:25;94549.75;;;9.49;47.07
36932;BME280;22847;42.654;23.370;2023-04-29T00:41:51;94504.75;;;9.19;47.70
36932;BME280;22847;42.654;23.370;2023-04-29T00:44:17;94725.03;;;10.61;47.57
36932;BME280;22847;42.654;23.370;2023-04-29T00:46:43;94593.34;;;9.83;47.82
36932;BME280;22847;42.654;23.370;2023-04-29T00:49:09;94662.09;;;10.19;47.56
36932;BME280;22847;42.654;23.370;2023-04-29T00:51:36;94659.78;;;10.16;47.41
36932;BME280;22847;42.654;23.370;2023-04-29T00:54:03;94708.91;;;10.48;47.41
36932;BME280;22847;42.654;23.370;2023-04-29T00:56:30;94544.13;;;9.44;47.37
36932;BME280;22847;42.654;23.370;2023-04-29T00:58:57;94525.66;;;9.37;47.42
36932;BME280;22847;42.654;23.370;2023-04-29T01:01:22;94722.44;;;10.61;47.67
36932;BME280;22847;42.654;23.370;2023-04-29T01:03:49;94728.56;;;10.70;47.88
36932;BME280;22847;42.654;23.370;2023-04-29T01:06:36;94700.56;;;10.72;48.28
36932;BME280;22847;42.654;23.370;2023-04-29T01:12:23;94709.38;;;10.71;48.82
36932;BME280;22847;42.654;23.370;2023-04-29T01:15:20;94693.78;;;10.52;48.67
36932;BME280;22847;42.654;23.370;2023-04-29T01:18:05;94687.22;;;10.48;48.93
36932;BME280;22847;42.654;23.370;2023-04-29T01:20:34;94701.78;;;10.78;48.97
36932;BME280;22847;42.654;23.370;2023-04-29T01:23:02;94541.56;;;9.80;48.99
36932;BME280;22847;42.654;23.370;2023-04-29T01:25:28;94685.41;;;10.58;49.76
36932;BME280;22847;42.654;23.370;2023-04-29T01:30:56;94676.53;;;9.95;50.71
36932;BME280;22847;42.654;23.370;2023-04-29T01:43:33;94699.75;;;10.35;50.70
36932;BME280;22847;42.654;23.370;2023-04-29T01:46:01;94676.97;;;9.80;49.83
36932;BME280;22847;42.654;23.370;2023-04-29T01:48:29;94652.56;;;9.81;50.58
36932;BME280;22847;42.654;23.370;2023-04-29T01:50:55;94502.56;;;9.05;51.29
36932;BME280;22847;42.654;23.370;2023-04-29T01:53:20;94681.44;;;10.07;50.79
36932;BME280;22847;42.654;23.370;2023-04-29T01:55:46;94511.53;;;8.55;49.06
36932;BME280;22847;42.654;23.370;2023-04-29T01:58:11;94645.38;;;9.27;49.89
36932;BME280;22847;42.654;23.370;2023-04-29T02:00:37;94690.09;;;9.89;49.06
36932;BME280;22847;42.654;23.370;2023-04-29T02:03:03;94515.22;;;8.90;48.75
36932;BME280;22847;42.654;23.370;2023-04-29T02:05:28;94676.22;;;10.07;48.72
36932;BME280;22847;42.654;23.370;2023-04-29T02:07:58;94694.19;;;10.20;49.30
36932;BME280;22847;42.654;23.370;2023-04-29T02:10:25;94672.72;;;9.79;49.47
36932;BME280;22847;42.654;23.370;2023-04-29T02:12:50;94708.03;;;10.01;50.01
36932;BME280;22847;42.654;23.370;2023-04-29T02:15:15;94603.19;;;9.33;49.94
36932;BME280;22847;42.654;23.370;2023-04-29T02:17:42;94701.03;;;10.02;50.28
36932;BME280;22847;42.654;23.370;2023-04-29T02:20:07;94719.81;;;10.05;50.40
36932;BME280;22847;42.654;23.370;2023-04-29T02:22:34;94691.44;;;10.02;50.65
36932;BME280;22847;42.654;23.370;2023-04-29T02:25:00;94661.88;;;9.84;50.30
36932;BME280;22847;42.654;23.370;2023-04-29T02:27:25;94641.34;;;9.71;49.90
36932;BME280;22847;42.654;23.370;2023-04-29T02:29:51;94696.09;;;10.08;49.90
36932;BME280;22847;42.654;23.370;2023-04-29T02:32:16;94651.88;;;9.79;49.81
36932;BME280;22847;42.654;23.370;2023-04-29T02:34:44;94705.53;;;10.09;49.41
36932;BME280;22847;42.654;23.370;2023-04-29T02:37:10;94699.09;;;10.13;49.28
36932;BME280;22847;42.654;23.370;2023-04-29T02:39:35;94677.50;;;9.84;49.53
36932;BME280;22847;42.654;23.370;2023-04-29T02:42:01;94606.06;;;9.30;50.01
36932;BME280;22847;42.654;23.370;2023-04-29T02:44:27;94697.06;;;10.07;49.91
36932;BME280;22847;42.654;23.370;2023-04-29T02:46:52;94698.31;;;10.03;50.10
36932;BME280;22847;42.654;23.370;2023-04-29T02:49:18;94648.75;;;9.76;50.25
36932;BME280;22847;42.654;23.370;2023-04-29T02:51:43;94699.97;;;9.95;50.75
36932;BME280;22847;42.654;23.370;2023-04-29T02:54:09;94592.34;;;9.28;51.06
36932;BME280;22847;42.654;23.370;2023-04-29T02:56:35;94512.75;;;8.70;50.95
36932;BME280;22847;42.654;23.370;2023-04-29T02:59:01;94684.66;;;9.63;51.52
36932;BME280;22847;42.654;23.370;2023-04-29T03:01:26;94707.81;;;9.66;52.01
36932;BME280;22847;42.654;23.370;2023-04-29T03:03:52;94714.38;;;9.60;52.04
36932;BME280;22847;42.654;23.370;2023-04-29T03:06:18;94568.44;;;8.67;51.77
36932;BME280;22847;42.654;23.370;2023-04-29T03:08:43;94724.38;;;9.55;52.10
36932;BME280;22847;42.654;23.370;2023-04-29T03:11:09;94721.66;;;9.57;52.27
36932;BME280;22847;42.654;23.370;2023-04-29T03:13:34;94728.38;;;9.50;52.39
36932;BME280;22847;42.654;23.370;2023-04-29T03:15:59;94567.19;;;8.62;52.52
36932;BME280;22847;42.654;23.370;2023-04-29T03:18:25;94714.78;;;9.56;52.70
36932;BME280;22847;42.654;23.370;2023-04-29T03:20:51;94549.69;;;8.54;52.64
36932;BME280;22847;42.654;23.370;2023-04-29T03:23:16;94701.50;;;9.30;52.54
36932;BME280;22847;42.654;23.370;2023-04-29T03:25:42;94741.22;;;9.51;52.86
36932;BME280;22847;42.654;23.370;2023-04-29T03:28:07;94546.50;;;8.31;52.64
36932;BME280;22847;42.654;23.370;2023-04-29T03:30:33;94726.16;;;9.55;53.03
36932;BME280;22847;42.654;23.370;2023-04-29T03:32:58;94538.84;;;8.39;53.21
36932;BME280;22847;42.654;23.370;2023-04-29T03:35:23;94705.22;;;9.27;53.77
36932;BME280;22847;42.654;23.370;2023-04-29T03:37:49;94541.94;;;8.24;53.73
36932;BME280;22847;42.654;23.370;2023-04-29T03:40:15;94766.03;;;9.36;53.84
36932;BME280;22847;42.654;23.370;2023-04-29T03:42:40;94742.31;;;9.39;53.99
36932;BME280;22847;42.654;23.370;2023-04-29T03:45:06;94590.94;;;8.38;54.35
36932;BME280;22847;42.654;23.370;2023-04-29T03:47:32;94623.66;;;8.50;54.20
36932;BME280;22847;42.654;23.370;2023-04-29T03:49:57;94713.81;;;9.09;54.18
36932;BME280;22847;42.654;23.370;2023-04-29T03:52:23;94564.63;;;8.22;54.31
36932;BME280;22847;42.654;23.370;2023-04-29T03:54:48;94763.84;;;9.41;54.81
36932;BME280;22847;42.654;23.370;2023-04-29T03:57:14;94742.19;;;9.40;55.13
36932;BME280;22847;42.654;23.370;2023-04-29T03:59:39;94608.63;;;8.63;55.03
36932;BME280;22847;42.654;23.370;2023-04-29T04:02:04;94739.72;;;9.49;54.88
36932;BME280;22847;42.654;23.370;2023-04-29T04:04:30;94551.16;;;8.37;54.68
36932;BME280;22847;42.654;23.370;2023-04-29T04:06:55;94713.16;;;9.26;54.54
36932;BME280;22847;42.654;23.370;2023-04-29T04:09:21;94729.03;;;9.52;53.95
36932;BME280;22847;42.654;23.370;2023-04-29T04:11:46;94726.44;;;9.52;54.00
36932;BME280;22847;42.654;23.370;2023-04-29T04:14:11;94702.34;;;9.40;53.70
36932;BME280;22847;42.654;23.370;2023-04-29T04:16:37;94591.28;;;8.64;54.34
36932;BME280;22847;42.654;23.370;2023-04-29T04:19:02;94759.47;;;9.90;54.23
36932;BME280;22847;42.654;23.370;2023-04-29T04:21:28;94606.59;;;9.05;53.84
36932;BME280;22847;42.654;23.370;2023-04-29T04:23:54;94660.41;;;9.43;54.41
36932;BME280;22847;42.654;23.370;2023-04-29T04:26:19;94705.50;;;9.72;53.72
36932;BME280;22847;42.654;23.370;2023-04-29T04:28:45;94747.94;;;9.92;53.63
36932;BME280;22847;42.654;23.370;2023-04-29T04:31:11;94739.81;;;10.05;53.90
36932;BME280;22847;42.654;23.370;2023-04-29T04:33:40;94770.41;;;10.12;53.99
36932;BME280;22847;42.654;23.370;2023-04-29T04:36:06;94738.16;;;10.13;51.96
36932;BME280;22847;42.654;23.370;2023-04-29T04:38:32;94728.34;;;9.98;51.86
36932;BME280;22847;42.654;23.370;2023-04-29T04:40:57;94741.06;;;10.29;51.47
36932;BME280;22847;42.654;23.370;2023-04-29T04:43:23;94712.69;;;10.07;50.77
36932;BME280;22847;42.654;23.370;2023-04-29T04:45:48;94772.28;;;9.24;53.46
36932;BME280;22847;42.654;23.370;2023-04-29T04:48:14;94716.84;;;9.52;52.97
36932;BME280;22847;42.654;23.370;2023-04-29T04:50:39;94587.44;;;9.16;51.83
36932;BME280;22847;42.654;23.370;2023-04-29T04:53:05;94575.97;;;9.18;52.89
36932;BME280;22847;42.654;23.370;2023-04-29T04:55:31;94572.22;;;9.40;52.61
36932;BME280;22847;42.654;23.370;2023-04-29T04:57:57;94581.19;;;9.74;51.98
36932;BME280;22847;42.654;23.370;2023-04-29T05:00:23;94581.19;;;10.11;51.57
36932;BME280;22847;42.654;23.370;2023-04-29T05:02:48;94789.47;;;11.43;51.04
36932;BME280;22847;42.654;23.370;2023-04-29T05:05:13;94583.13;;;10.64;50.60
36932;BME280;22847;42.654;23.370;2023-04-29T05:07:39;94570.41;;;10.34;50.31
36932;BME280;22847;42.654;23.370;2023-04-29T05:10:05;94553.28;;;10.76;49.94
36932;BME280;22847;42.654;23.370;2023-04-29T05:12:31;94640.28;;;11.38;49.17
36932;BME280;22847;42.654;23.370;2023-04-29T05:14:57;94467.44;;;10.47;48.78
36932;BME280;22847;42.654;23.370;2023-04-29T05:17:23;94727.88;;;12.29;48.49
36932;BME280;22847;42.654;23.370;2023-04-29T05:19:48;94672.56;;;12.16;48.00
36932;BME280;22847;42.654;23.370;2023-04-29T05:22:14;94524.72;;;11.36;47.24
36932;BME280;22847;42.654;23.370;2023-04-29T05:24:39;94523.13;;;11.17;46.83
36932;BME280;22847;42.654;23.370;2023-04-29T05:27:04;94659.28;;;11.48;48.16
36932;BME280;22847;42.654;23.370;2023-04-29T05:29:30;94728.44;;;10.71;50.66
36932;BME280;22847;42.654;23.370;2023-04-29T05:31:55;94610.41;;;9.59;52.44
36932;BME280;22847;42.654;23.370;2023-04-29T05:34:21;94706.38;;;10.19;52.14
36932;BME280;22847;42.654;23.370;2023-04-29T05:36:46;94570.31;;;9.32;53.13
36932;BME280;22847;42.654;23.370;2023-04-29T05:39:12;94637.16;;;10.07;52.27
36932;BME280;22847;42.654;23.370;2023-04-29T05:41:37;94703.28;;;10.80;51.46
36932;BME280;22847;42.654;23.370;2023-04-29T05:44:02;94738.34;;;11.58;49.55
36932;BME280;22847;42.654;23.370;2023-04-29T05:46:28;94552.00;;;11.15;48.39
36932;BME280;22847;42.654;23.370;2023-04-29T05:48:53;94735.72;;;11.40;49.43
36932;BME280;22847;42.654;23.370;2023-04-29T05:51:19;94687.19;;;11.65;48.66
36932;BME280;22847;42.654;23.370;2023-04-29T05:53:44;94498.16;;;11.14;47.74
36932;BME280;22847;42.654;23.370;2023-04-29T05:56:09;94564.97;;;12.02;47.58
36932;BME280;22847;42.654;23.370;2023-04-29T05:58:35;94670.28;;;12.88;46.45
36932;BME280;22847;42.654;23.370;2023-04-29T06:01:00;94697.97;;;13.57;45.43
36932;BME280;22847;42.654;23.370;2023-04-29T06:03:26;94647.22;;;13.91;44.22
36932;BME280;22847;42.654;23.370;2023-04-29T06:05:52;94678.53;;;14.80;43.41
36932;BME280;22847;42.654;23.370;2023-04-29T06:08:18;94625.34;;;15.16;42.62
36932;BME280;22847;42.654;23.370;2023-04-29T06:10:43;94678.75;;;16.08;41.05
36932;BME280;22847;42.654;23.370;2023-04-29T06:13:10;94693.97;;;16.50;39.32
36932;BME280;22847;42.654;23.370;2023-04-29T06:15:35;94698.50;;;16.41;39.46
36932;BME280;22847;42.654;23.370;2023-04-29T06:18:01;94597.75;;;16.18;40.22
36932;BME280;22847;42.654;23.370;2023-04-29T06:20:26;94495.19;;;15.89;38.51
36932;BME280;22847;42.654;23.370;2023-04-29T06:22:51;94681.41;;;18.18;56.84
36932;BME280;22847;42.654;23.370;2023-04-29T06:25:17;94694.59;;;20.17;47.80
36932;BME280;22847;42.654;23.370;2023-04-29T06:27:45;94708.09;;;21.45;40.94
36932;BME280;22847;42.654;23.370;2023-04-29T06:30:11;94579.38;;;21.67;36.98
36932;BME280;22847;42.654;23.370;2023-04-29T06:32:38;94641.59;;;22.84;35.07
36932;BME280;22847;42.654;23.370;2023-04-29T06:35:03;94643.03;;;23.04;32.56
36932;BME280;22847;42.654;23.370;2023-04-29T06:37:29;94713.13;;;22.92;33.50
36932;BME280;22847;42.654;23.370;2023-04-29T06:39:54;94572.56;;;22.52;32.55
36932;BME280;22847;42.654;23.370;2023-04-29T06:42:20;94694.66;;;23.15;31.20
36932;BME280;22847;42.654;23.370;2023-04-29T06:44:45;94679.91;;;22.76;30.89
36932;BME280;22847;42.654;23.370;2023-04-29T06:47:11;94611.94;;;22.19;32.37
36932;BME280;22847;42.654;23.370;2023-04-29T06:49:36;94585.66;;;22.29;31.42
36932;BME280;22847;42.654;23.370;2023-04-29T06:52:01;94450.28;;;21.55;29.99
36932;BME280;22847;42.654;23.370;2023-04-29T06:54:27;94597.28;;;22.96;30.18
36932;BME280;22847;42.654;23.370;2023-04-29T06:56:53;94566.66;;;22.50;29.62
36932;BME280;22847;42.654;23.370;2023-04-29T06:59:18;94626.31;;;23.16;30.00
36932;BME280;22847;42.654;23.370;2023-04-29T07:01:44;94682.50;;;23.44;30.39
36932;BME280;22847;42.654;23.370;2023-04-29T07:04:09;94500.97;;;22.39;30.22
36932;BME280;22847;42.654;23.370;2023-04-29T07:06:36;94663.19;;;23.30;30.00
36932;BME280;22847;42.654;23.370;2023-04-29T07:09:01;94524.28;;;22.37;30.51
36932;BME280;22847;42.654;23.370;2023-04-29T07:11:27;94579.81;;;22.45;29.90
36932;BME280;22847;42.654;23.370;2023-04-29T07:13:53;94541.25;;;22.36;30.63
36932;BME280;22847;42.654;23.370;2023-04-29T07:16:18;94652.84;;;22.36;29.34
36932;BME280;22847;42.654;23.370;2023-04-29T07:18:50;94526.59;;;20.77;29.94
36932;BME280;22847;42.654;23.370;2023-04-29T07:21:16;94658.31;;;20.63;30.51
36932;BME280;22847;42.654;23.370;2023-04-29T07:23:41;94682.13;;;19.84;31.68
36932;BME280;22847;42.654;23.370;2023-04-29T07:26:11;94634.22;;;19.59;33.57
36932;BME280;22847;42.654;23.370;2023-04-29T07:28:38;94682.31;;;19.22;34.07
36932;BME280;22847;42.654;23.370;2023-04-29T07:31:04;94550.16;;;19.42;35.61
36932;BME280;22847;42.654;23.370;2023-04-29T07:33:29;94621.28;;;20.43;34.71
36932;BME280;22847;42.654;23.370;2023-04-29T07:35:55;94667.06;;;20.83;31.98
36932;BME280;22847;42.654;23.370;2023-04-29T07:38:20;94681.94;;;20.78;31.77
36932;BME280;22847;42.654;23.370;2023-04-29T07:40:46;94649.81;;;20.48;31.38
36932;BME280;22847;42.654;23.370;2023-04-29T07:43:11;94633.50;;;20.31;32.41
36932;BME280;22847;42.654;23.370;2023-04-29T07:45:37;94662.16;;;20.80;32.36
36932;BME280;22847;42.654;23.370;2023-04-29T07:48:04;94548.97;;;19.57;32.39
36932;BME280;22847;42.654;23.370;2023-04-29T07:50:30;94549.53;;;19.27;32.12
36932;BME280;22847;42.654;23.370;2023-04-29T07:52:58;94579.16;;;19.15;32.63
36932;BME280;22847;42.654;23.370;2023-04-29T07:55:24;94454.03;;;18.62;32.16
36932;BME280;22847;42.654;23.370;2023-04-29T07:57:51;94601.72;;;19.85;32.75
36932;BME280;22847;42.654;23.370;2023-04-29T08:00:16;94680.53;;;20.49;32.30
36932;BME280;22847;42.654;23.370;2023-04-29T08:02:42;94630.03;;;20.57;30.96
36932;BME280;22847;42.654;23.370;2023-04-29T08:05:08;94583.56;;;20.48;31.27
36932;BME280;22847;42.654;23.370;2023-04-29T08:07:34;94672.38;;;20.77;31.04
36932;BME280;22847;42.654;23.370;2023-04-29T08:09:59;94483.22;;;19.94;31.02
36932;BME280;22847;42.654;23.370;2023-04-29T08:12:25;94649.72;;;20.81;30.90
36932;BME280;22847;42.654;23.370;2023-04-29T08:14:50;94648.09;;;20.86;30.52
36932;BME280;22847;42.654;23.370;2023-04-29T08:17:15;94615.84;;;20.96;30.58
36932;BME280;22847;42.654;23.370;2023-04-29T08:19:41;94642.75;;;21.00;29.70
36932;BME280;22847;42.654;23.370;2023-04-29T08:22:06;94453.56;;;19.72;30.50
36932;BME280;22847;42.654;23.370;2023-04-29T08:24:31;94547.97;;;19.91;31.14
36932;BME280;22847;42.654;23.370;2023-04-29T08:26:59;94471.00;;;19.21;31.31
36932;BME280;22847;42.654;23.370;2023-04-29T08:29:24;94631.44;;;20.14;31.93
36932;BME280;22847;42.654;23.370;2023-04-29T08:31:49;94608.63;;;20.26;32.30
36932;BME280;22847;42.654;23.370;2023-04-29T08:34:15;94570.53;;;20.20;30.44
36932;BME280;22847;42.654;23.370;2023-04-29T08:36:41;94619.63;;;20.49;30.68
36932;BME280;22847;42.654;23.370;2023-04-29T08:39:06;94636.34;;;20.56;27.80
36932;BME280;22847;42.654;23.370;2023-04-29T08:41:32;94589.59;;;20.81;27.63
36932;BME280;22847;42.654;23.370;2023-04-29T08:43:58;94650.63;;;21.32;26.98
36932;BME280;22847;42.654;23.370;2023-04-29T08:46:25;94510.28;;;19.96;27.77
36932;BME280;22847;42.654;23.370;2023-04-29T08:48:51;94600.06;;;20.24;28.55
36932;BME280;22847;42.654;23.370;2023-04-29T08:51:17;94605.75;;;20.27;28.66
36932;BME280;22847;42.654;23.370;2023-04-29T08:53:43;94628.63;;;20.35;28.59
36932;BME280;22847;42.654;23.370;2023-04-29T08:56:12;94569.50;;;20.47;28.81
36932;BME280;22847;42.654;23.370;2023-04-29T08:58:41;94594.00;;;21.01;28.00
36932;BME280;22847;42.654;23.370;2023-04-29T09:01:08;94589.38;;;20.83;26.36
36932;BME280;22847;42.654;23.370;2023-04-29T09:03:52;94612.72;;;20.41;27.24
36932;BME280;22847;42.654;23.370;2023-04-29T09:06:19;94601.28;;;20.61;26.82
36932;BME280;22847;42.654;23.370;2023-04-29T09:08:45;94578.25;;;20.61;26.62
36932;BME280;22847;42.654;23.370;2023-04-29T09:11:11;94572.25;;;21.30;27.04
36932;BME280;22847;42.654;23.370;2023-04-29T09:13:37;94582.19;;;21.48;27.77
36932;BME280;22847;42.654;23.370;2023-04-29T09:16:02;94625.19;;;21.88;26.93
36932;BME280;22847;42.654;23.370;2023-04-29T09:21:19;94570.69;;;20.65;27.72
36932;BME280;22847;42.654;23.370;2023-04-29T09:23:46;94567.38;;;21.27;27.53
36932;BME280;22847;42.654;23.370;2023-04-29T09:26:12;94592.94;;;21.53;27.35
36932;BME280;22847;42.654;23.370;2023-04-29T09:28:37;94518.97;;;21.38;28.49
36932;BME280;22847;42.654;23.370;2023-04-29T09:31:05;94591.09;;;21.53;27.42
36932;BME280;22847;42.654;23.370;2023-04-29T09:33:49;94572.94;;;21.57;27.49
36932;BME280;22847;42.654;23.370;2023-04-29T09:38:59;94434.09;;;20.18;26.42
36932;BME280;22847;42.654;23.370;2023-04-29T09:41:24;94535.81;;;20.74;26.84
36932;BME280;22847;42.654;23.370;2023-04-29T09:44:06;94539.75;;;20.52;26.72
36932;BME280;22847;42.654;23.370;2023-04-29T09:46:32;94568.69;;;20.47;26.96
36932;BME280;22847;42.654;23.370;2023-04-29T09:48:58;94571.97;;;20.36;27.19
36932;BME280;22847;42.654;23.370;2023-04-29T09:51:23;94550.78;;;20.42;26.92
36932;BME280;22847;42.654;23.370;2023-04-29T09:53:49;94554.97;;;20.70;27.36
36932;BME280;22847;42.654;23.370;2023-04-29T09:56:14;94402.66;;;19.70;28.49
36932;BME280;22847;42.654;23.370;2023-04-29T09:58:40;94532.59;;;21.04;44.62
36932;BME280;22847;42.654;23.370;2023-04-29T10:01:06;94552.34;;;21.52;42.79
36932;BME280;22847;42.654;23.370;2023-04-29T10:03:36;94544.75;;;21.87;36.10
36932;BME280;22847;42.654;23.370;2023-04-29T10:06:03;94368.41;;;20.77;37.71
36932;BME280;22847;42.654;23.370;2023-04-29T10:08:29;94538.44;;;22.31;35.15
36932;BME280;22847;42.654;23.370;2023-04-29T10:11:00;94532.53;;;22.47;34.97
36932;BME280;22847;42.654;23.370;2023-04-29T10:13:27;94528.81;;;22.91;32.03
36932;BME280;22847;42.654;23.370;2023-04-29T10:18:35;94458.97;;;22.48;29.07
36932;BME280;22847;42.654;23.370;2023-04-29T10:21:06;94537.03;;;22.72;26.97
36932;BME280;22847;42.654;23.370;2023-04-29T10:23:32;94406.88;;;21.67;25.88
36932;BME280;22847;42.654;23.370;2023-04-29T10:25:59;94464.56;;;21.54;26.01
36932;BME280;22847;42.654;23.370;2023-04-29T10:28:30;94521.94;;;21.17;25.84
36932;BME280;22847;42.654;23.370;2023-04-29T10:30:57;94506.88;;;21.11;27.14
36932;BME280;22847;42.654;23.370;2023-04-29T10:33:25;94508.91;;;21.15;25.67
36932;BME280;22847;42.654;23.370;2023-04-29T10:35:52;94489.09;;;20.80;25.97
36932;BME280;22847;42.654;23.370;2023-04-29T10:38:29;94466.88;;;20.23;26.52
36932;BME280;22847;42.654;23.370;2023-04-29T10:40:57;94519.66;;;20.12;26.54
36932;BME280;22847;42.654;23.370;2023-04-29T10:43:24;94492.13;;;20.19;27.04
36932;BME280;22847;42.654;23.370;2023-04-29T10:46:18;94517.41;;;20.09;26.98
36932;BME280;22847;42.654;23.370;2023-04-29T10:48:45;94385.16;;;19.36;28.18
36932;BME280;22847;42.654;23.370;2023-04-29T10:51:10;94362.44;;;19.22;27.19
36932;BME280;22847;42.654;23.370;2023-04-29T10:56:41;94482.97;;;20.35;26.97
36932;BME280;22847;42.654;23.370;2023-04-29T10:59:12;94493.31;;;20.36;27.84
36932;BME280;22847;42.654;23.370;2023-04-29T11:01:46;94503.97;;;20.30;28.51
36932;BME280;22847;42.654;23.370;2023-04-29T11:04:12;94502.09;;;20.37;27.54
36932;BME280;22847;42.654;23.370;2023-04-29T11:06:39;94521.44;;;20.44;27.64
36932;BME280;22847;42.654;23.370;2023-04-29T11:09:19;94387.72;;;19.95;27.23
36932;BME280;22847;42.654;23.370;2023-04-29T11:14:14;94469.25;;;20.44;26.04
36932;BME280;22847;42.654;23.370;2023-04-29T11:16:47;94431.03;;;20.21;25.62
36932;BME280;22847;42.654;23.370;2023-04-29T11:19:15;94373.28;;;19.98;26.43
36932;BME280;22847;42.654;23.370;2023-04-29T11:21:41;94492.78;;;20.72;26.43
36932;BME280;22847;42.654;23.370;2023-04-29T11:24:06;94412.38;;;19.96;26.78
36932;BME280;22847;42.654;23.370;2023-04-29T11:26:35;94520.00;;;20.48;28.33
36932;BME280;22847;42.654;23.370;2023-04-29T11:29:01;94540.03;;;20.82;44.02
36932;BME280;22847;42.654;23.370;2023-04-29T11:31:32;94517.25;;;21.50;40.89
36932;BME280;22847;42.654;23.370;2023-04-29T11:33:58;94359.72;;;20.70;38.81
36932;BME280;22847;42.654;23.370;2023-04-29T11:36:24;94486.06;;;21.70;28.94
36932;BME280;22847;42.654;23.370;2023-04-29T11:38:52;94429.78;;;21.62;31.67
36932;BME280;22847;42.654;23.370;2023-04-29T11:41:18;94326.97;;;21.14;32.02
36932;BME280;22847;42.654;23.370;2023-04-29T11:43:46;94489.97;;;22.36;33.45
36932;BME280;22847;42.654;23.370;2023-04-29T11:46:13;94330.44;;;21.58;32.20
36932;BME280;22847;42.654;23.370;2023-04-29T11:51:29;94497.47;;;22.93;31.37
36932;BME280;22847;42.654;23.370;2023-04-29T11:53:55;94336.44;;;22.08;30.14
36932;BME280;22847;42.654;23.370;2023-04-29T11:59:50;94312.91;;;21.57;31.29
36932;BME280;22847;42.654;23.370;2023-04-29T12:02:20;94474.53;;;22.81;29.57
36932;BME280;22847;42.654;23.370;2023-04-29T12:04:46;94333.75;;;21.71;28.70
36932;BME280;22847;42.654;23.370;2023-04-29T12:07:15;94468.50;;;22.74;28.25
36932;BME280;22847;42.654;23.370;2023-04-29T12:09:54;94255.31;;;21.39;29.32
36932;BME280;22847;42.654;23.370;2023-04-29T12:12:21;94467.44;;;22.38;31.63
36932;BME280;22847;42.654;23.370;2023-04-29T12:14:47;94234.38;;;21.13;34.55
36932;BME280;22847;42.654;23.370;2023-04-29T12:17:13;94488.19;;;21.87;28.68
36932;BME280;22847;42.654;23.370;2023-04-29T12:19:39;94451.50;;;21.77;35.15
36932;BME280;22847;42.654;23.370;2023-04-29T12:22:05;94482.19;;;22.16;31.13
36932;BME280;22847;42.654;23.370;2023-04-29T12:24:38;94383.59;;;20.95;29.06
36932;BME280;22847;42.654;23.370;2023-04-29T12:27:07;94495.31;;;20.99;30.05
36932;BME280;22847;42.654;23.370;2023-04-29T12:29:32;94484.56;;;20.87;30.15
36932;BME280;22847;42.654;23.370;2023-04-29T12:31:58;94471.75;;;20.39;30.18
36932;BME280;22847;42.654;23.370;2023-04-29T12:34:25;94472.38;;;20.15;30.24
36932;BME280;22847;42.654;23.370;2023-04-29T12:36:50;94466.75;;;19.98;29.79
36932;BME280;22847;42.654;23.370;2023-04-29T12:39:16;94414.91;;;19.58;30.06
36932;BME280;22847;42.654;23.370;2023-04-29T12:41:41;94353.47;;;19.30;30.22
36932;BME280;22847;42.654;23.370;2023-04-29T12:44:07;94471.81;;;19.87;30.71
36932;BME280;22847;42.654;23.370;2023-04-29T12:46:37;94466.75;;;19.98;30.69
36932;BME280;22847;42.654;23.370;2023-04-29T12:49:03;94470.56;;;20.09;31.53
36932;BME280;22847;42.654;23.370;2023-04-29T12:51:33;94494.25;;;19.65;31.94
36932;BME280;22847;42.654;23.370;2023-04-29T12:54:00;94452.94;;;19.57;32.02
36932;BME280;22847;42.654;23.370;2023-04-29T12:56:26;94461.66;;;19.77;30.91
36932;BME280;22847;42.654;23.370;2023-04-29T12:58:52;94439.91;;;19.75;31.83
36932;BME280;22847;42.654;23.370;2023-04-29T13:01:17;94464.91;;;19.99;31.83
36932;BME280;22847;42.654;23.370;2023-04-29T13:03:43;94451.06;;;19.77;32.49
36932;BME280;22847;42.654;23.370;2023-04-29T13:06:08;94453.69;;;19.97;32.06
36932;BME280;22847;42.654;23.370;2023-04-29T13:08:33;94431.78;;;19.77;31.93
36932;BME280;22847;42.654;23.370;2023-04-29T13:10:59;94484.84;;;20.01;30.35
36932;BME280;22847;42.654;23.370;2023-04-29T13:13:24;94438.88;;;19.89;30.51
36932;BME280;22847;42.654;23.370;2023-04-29T13:15:51;94317.94;;;18.86;31.20
36932;BME280;22847;42.654;23.370;2023-04-29T13:18:17;94453.31;;;19.87;31.91
36932;BME280;22847;42.654;23.370;2023-04-29T13:20:42;94433.53;;;19.96;32.69
36932;BME280;22847;42.654;23.370;2023-04-29T13:23:09;94426.88;;;19.80;33.08
36932;BME280;22847;42.654;23.370;2023-04-29T13:25:34;94303.88;;;19.05;33.05